sensor_id;sensor_type;location;lat;lon;timestamp;P1;durP1;ratioP1;P2;durP2;ratioP2
12480;SDS011;6305;48.398;11.762;2023-07-31T00:00:03;3.40;;;2.50;;
12480;SDS011;6305;48.398;11.762;2023-07-31T00:02:35;7.22;;;2.50;;
12480;SDS011;6305;48.398;11.762;2023-07-31T00:05:02;6.53;;;2.95;;
12480;SDS011;6305;48.398;11.762;2023-07-31T00:07:29;4.18;;;2.45;;
12480;SDS011;6305;48.398;11.762;2023-07-31T00:09:56;4.70;;;2.50;;
12480;SDS011;6305;48.398;11.762;2023-07-31T00:12:23;4.93;;;2.60;;
12480;SDS011;6305;48.398;11.762;2023-07-31T00:14:50;3.58;;;2.30;;
12480;SDS011;6305;48.398;11.762;2023-07-31T00:17:17;5.75;;;2.72;;
12480;SDS011;6305;48.398;11.762;2023-07-31T00:19:45;3.38;;;2.85;;
12480;SDS011;6305;48.398;11.762;2023-07-31T00:22:14;6.93;;;2.70;;
12480;SDS011;6305;48.398;11.762;2023-07-31T00:24:41;5.10;;;2.85;;
12480;SDS011;6305;48.398;11.762;2023-07-31T00:27:08;5.47;;;2.72;;
12480;SDS011;6305;48.398;11.762;2023-07-31T00:29:35;7.88;;;3.53;;
12480;SDS011;6305;48.398;11.762;2023-07-31T00:32:03;5.70;;;2.40;;
12480;SDS011;6305;48.398;11.762;2023-07-31T00:34:31;4.00;;;2.78;;
12480;SDS011;6305;48.398;11.762;2023-07-31T00:36:59;4.00;;;2.95;;
12480;SDS011;6305;48.398;11.762;2023-07-31T00:39:26;4.75;;;2.92;;
12480;SDS011;6305;48.398;11.762;2023-07-31T00:41:53;5.45;;;2.83;;
12480;SDS011;6305;48.398;11.762;2023-07-31T00:44:20;3.92;;;2.67;;
12480;SDS011;6305;48.398;11.762;2023-07-31T00:46:47;5.20;;;2.75;;
12480;SDS011;6305;48.398;11.762;2023-07-31T00:49:14;4.40;;;3.00;;
12480;SDS011;6305;48.398;11.762;2023-07-31T00:51:41;7.15;;;3.05;;
12480;SDS011;6305;48.398;11.762;2023-07-31T00:54:09;4.78;;;2.80;;
12480;SDS011;6305;48.398;11.762;2023-07-31T00:56:38;6.65;;;3.05;;
12480;SDS011;6305;48.398;11.762;2023-07-31T00:59:07;5.45;;;3.17;;
12480;SDS011;6305;48.398;11.762;2023-07-31T01:01:34;5.35;;;3.13;;
12480;SDS011;6305;48.398;11.762;2023-07-31T01:04:01;6.03;;;3.28;;
12480;SDS011;6305;48.398;11.762;2023-07-31T01:06:30;9.35;;;3.03;;
12480;SDS011;6305;48.398;11.762;2023-07-31T01:09:03;6.05;;;3.30;;
12480;SDS011;6305;48.398;11.762;2023-07-31T01:11:37;6.25;;;3.28;;
12480;SDS011;6305;48.398;11.762;2023-07-31T01:14:09;4.63;;;2.92;;
12480;SDS011;6305;48.398;11.762;2023-07-31T01:16:36;8.43;;;3.78;;
12480;SDS011;6305;48.398;11.762;2023-07-31T01:19:04;5.20;;;3.63;;
12480;SDS011;6305;48.398;11.762;2023-07-31T01:21:40;5.82;;;3.65;;
12480;SDS011;6305;48.398;11.762;2023-07-31T01:24:20;4.03;;;3.58;;
12480;SDS011;6305;48.398;11.762;2023-07-31T01:26:52;6.05;;;3.30;;
12480;SDS011;6305;48.398;11.762;2023-07-31T01:29:24;6.38;;;3.60;;
12480;SDS011;6305;48.398;11.762;2023-07-31T01:31:59;7.38;;;3.85;;
12480;SDS011;6305;48.398;11.762;2023-07-31T01:34:28;6.18;;;4.10;;
12480;SDS011;6305;48.398;11.762;2023-07-31T01:36:56;5.60;;;3.65;;
12480;SDS011;6305;48.398;11.762;2023-07-31T01:39:24;8.68;;;4.03;;
12480;SDS011;6305;48.398;11.762;2023-07-31T01:41:52;8.75;;;4.28;;
12480;SDS011;6305;48.398;11.762;2023-07-31T01:44:19;5.78;;;3.70;;
12480;SDS011;6305;48.398;11.762;2023-07-31T01:46:46;7.68;;;3.97;;
12480;SDS011;6305;48.398;11.762;2023-07-31T01:49:14;5.60;;;3.80;;
12480;SDS011;6305;48.398;11.762;2023-07-31T01:51:41;4.63;;;3.58;;
12480;SDS011;6305;48.398;11.762;2023-07-31T01:54:08;7.05;;;3.83;;
12480;SDS011;6305;48.398;11.762;2023-07-31T01:56:35;6.03;;;4.13;;
12480;SDS011;6305;48.398;11.762;2023-07-31T01:59:03;6.20;;;3.85;;
12480;SDS011;6305;48.398;11.762;2023-07-31T02:01:30;7.13;;;3.92;;
12480;SDS011;6305;48.398;11.762;2023-07-31T02:03:57;7.22;;;3.90;;
12480;SDS011;6305;48.398;11.762;2023-07-31T02:06:25;5.90;;;3.83;;
12480;SDS011;6305;48.398;11.762;2023-07-31T02:08:52;5.07;;;3.97;;
12480;SDS011;6305;48.398;11.762;2023-07-31T02:11:18;7.07;;;3.67;;
12480;SDS011;6305;48.398;11.762;2023-07-31T02:13:48;5.25;;;3.90;;
12480;SDS011;6305;48.398;11.762;2023-07-31T02:16:17;7.07;;;3.78;;
12480;SDS011;6305;48.398;11.762;2023-07-31T02:18:44;5.35;;;3.47;;
12480;SDS011;6305;48.398;11.762;2023-07-31T02:21:11;4.35;;;3.42;;
12480;SDS011;6305;48.398;11.762;2023-07-31T02:23:38;4.65;;;3.30;;
12480;SDS011;6305;48.398;11.762;2023-07-31T02:26:05;6.72;;;3.70;;
12480;SDS011;6305;48.398;11.762;2023-07-31T02:28:33;8.32;;;3.50;;
12480;SDS011;6305;48.398;11.762;2023-07-31T02:31:00;5.28;;;3.28;;
12480;SDS011;6305;48.398;11.762;2023-07-31T02:33:28;5.93;;;3.25;;
12480;SDS011;6305;48.398;11.762;2023-07-31T02:35:55;5.70;;;4.05;;
12480;SDS011;6305;48.398;11.762;2023-07-31T02:38:22;5.28;;;3.40;;
12480;SDS011;6305;48.398;11.762;2023-07-31T02:40:49;5.18;;;3.35;;
12480;SDS011;6305;48.398;11.762;2023-07-31T02:43:16;5.38;;;3.47;;
12480;SDS011;6305;48.398;11.762;2023-07-31T02:45:43;6.40;;;3.70;;
12480;SDS011;6305;48.398;11.762;2023-07-31T02:48:10;6.78;;;3.92;;
12480;SDS011;6305;48.398;11.762;2023-07-31T02:50:38;5.53;;;3.83;;
12480;SDS011;6305;48.398;11.762;2023-07-31T02:53:05;8.55;;;4.20;;
12480;SDS011;6305;48.398;11.762;2023-07-31T02:55:33;4.97;;;3.70;;
12480;SDS011;6305;48.398;11.762;2023-07-31T02:58:00;5.82;;;3.88;;
12480;SDS011;6305;48.398;11.762;2023-07-31T03:00:27;7.82;;;4.10;;
12480;SDS011;6305;48.398;11.762;2023-07-31T03:02:54;9.23;;;4.10;;
12480;SDS011;6305;48.398;11.762;2023-07-31T03:05:21;5.95;;;3.92;;
12480;SDS011;6305;48.398;11.762;2023-07-31T03:07:50;9.35;;;5.40;;
12480;SDS011;6305;48.398;11.762;2023-07-31T03:10:17;6.78;;;4.25;;
12480;SDS011;6305;48.398;11.762;2023-07-31T03:12:46;5.80;;;4.10;;
12480;SDS011;6305;48.398;11.762;2023-07-31T03:15:13;7.28;;;4.40;;
12480;SDS011;6305;48.398;11.762;2023-07-31T03:17:40;7.72;;;4.20;;
12480;SDS011;6305;48.398;11.762;2023-07-31T03:20:07;8.95;;;4.35;;
12480;SDS011;6305;48.398;11.762;2023-07-31T03:22:35;7.43;;;4.57;;
12480;SDS011;6305;48.398;11.762;2023-07-31T03:25:05;7.55;;;4.53;;
12480;SDS011;6305;48.398;11.762;2023-07-31T03:27:32;6.80;;;4.82;;
12480;SDS011;6305;48.398;11.762;2023-07-31T03:29:59;7.57;;;4.80;;
12480;SDS011;6305;48.398;11.762;2023-07-31T03:32:27;7.15;;;4.95;;
12480;SDS011;6305;48.398;11.762;2023-07-31T03:34:54;9.73;;;4.43;;
12480;SDS011;6305;48.398;11.762;2023-07-31T03:37:21;6.40;;;4.90;;
12480;SDS011;6305;48.398;11.762;2023-07-31T03:39:47;9.57;;;5.10;;
12480;SDS011;6305;48.398;11.762;2023-07-31T03:42:17;7.47;;;4.95;;
12480;SDS011;6305;48.398;11.762;2023-07-31T03:44:43;7.32;;;4.78;;
12480;SDS011;6305;48.398;11.762;2023-07-31T03:47:10;9.55;;;5.50;;
12480;SDS011;6305;48.398;11.762;2023-07-31T03:49:37;9.82;;;5.43;;
12480;SDS011;6305;48.398;11.762;2023-07-31T03:52:04;10.25;;;5.63;;
12480;SDS011;6305;48.398;11.762;2023-07-31T03:54:32;10.95;;;5.72;;
12480;SDS011;6305;48.398;11.762;2023-07-31T03:56:59;11.57;;;5.78;;
12480;SDS011;6305;48.398;11.762;2023-07-31T03:59:27;9.55;;;5.30;;
12480;SDS011;6305;48.398;11.762;2023-07-31T04:01:54;10.40;;;5.43;;
12480;SDS011;6305;48.398;11.762;2023-07-31T04:04:21;8.43;;;5.60;;
12480;SDS011;6305;48.398;11.762;2023-07-31T04:06:48;6.95;;;5.25;;
12480;SDS011;6305;48.398;11.762;2023-07-31T04:09:15;8.18;;;5.30;;
12480;SDS011;6305;48.398;11.762;2023-07-31T04:11:42;8.40;;;5.55;;
12480;SDS011;6305;48.398;11.762;2023-07-31T04:14:09;7.55;;;5.20;;
12480;SDS011;6305;48.398;11.762;2023-07-31T04:16:37;7.22;;;4.82;;
12480;SDS011;6305;48.398;11.762;2023-07-31T04:19:04;5.57;;;5.00;;
12480;SDS011;6305;48.398;11.762;2023-07-31T04:21:31;10.02;;;4.80;;
12480;SDS011;6305;48.398;11.762;2023-07-31T04:23:58;8.35;;;5.00;;
12480;SDS011;6305;48.398;11.762;2023-07-31T04:26:25;8.43;;;4.68;;
12480;SDS011;6305;48.398;11.762;2023-07-31T04:28:52;9.45;;;4.22;;
12480;SDS011;6305;48.398;11.762;2023-07-31T04:31:19;7.22;;;4.07;;
12480;SDS011;6305;48.398;11.762;2023-07-31T04:33:47;4.75;;;3.88;;
12480;SDS011;6305;48.398;11.762;2023-07-31T04:36:14;6.38;;;4.18;;
12480;SDS011;6305;48.398;11.762;2023-07-31T04:38:41;7.32;;;3.53;;
12480;SDS011;6305;48.398;11.762;2023-07-31T04:41:08;5.07;;;3.45;;
12480;SDS011;6305;48.398;11.762;2023-07-31T04:43:35;6.38;;;3.85;;
12480;SDS011;6305;48.398;11.762;2023-07-31T04:46:04;7.40;;;3.20;;
12480;SDS011;6305;48.398;11.762;2023-07-31T04:48:31;7.35;;;3.80;;
12480;SDS011;6305;48.398;11.762;2023-07-31T04:50:59;5.45;;;3.60;;
12480;SDS011;6305;48.398;11.762;2023-07-31T04:53:26;4.82;;;2.95;;
12480;SDS011;6305;48.398;11.762;2023-07-31T04:55:53;5.00;;;3.00;;
12480;SDS011;6305;48.398;11.762;2023-07-31T04:58:20;3.80;;;2.65;;
12480;SDS011;6305;48.398;11.762;2023-07-31T05:00:47;6.10;;;2.83;;
12480;SDS011;6305;48.398;11.762;2023-07-31T05:03:14;3.17;;;2.50;;
12480;SDS011;6305;48.398;11.762;2023-07-31T05:05:41;4.63;;;2.72;;
12480;SDS011;6305;48.398;11.762;2023-07-31T05:08:09;4.07;;;2.50;;
12480;SDS011;6305;48.398;11.762;2023-07-31T05:10:36;4.90;;;2.40;;
12480;SDS011;6305;48.398;11.762;2023-07-31T05:13:03;4.35;;;2.20;;
12480;SDS011;6305;48.398;11.762;2023-07-31T05:15:31;5.85;;;2.58;;
12480;SDS011;6305;48.398;11.762;2023-07-31T05:17:58;6.68;;;2.58;;
12480;SDS011;6305;48.398;11.762;2023-07-31T05:20:25;2.70;;;2.40;;
12480;SDS011;6305;48.398;11.762;2023-07-31T05:22:53;4.90;;;2.45;;
12480;SDS011;6305;48.398;11.762;2023-07-31T05:25:21;5.43;;;2.78;;
12480;SDS011;6305;48.398;11.762;2023-07-31T05:27:48;5.05;;;2.58;;
12480;SDS011;6305;48.398;11.762;2023-07-31T05:30:15;4.32;;;2.55;;
12480;SDS011;6305;48.398;11.762;2023-07-31T05:32:42;3.25;;;2.08;;
12480;SDS011;6305;48.398;11.762;2023-07-31T05:35:09;2.35;;;2.15;;
12480;SDS011;6305;48.398;11.762;2023-07-31T05:37:36;3.10;;;2.28;;
12480;SDS011;6305;48.398;11.762;2023-07-31T05:40:03;3.08;;;2.38;;
12480;SDS011;6305;48.398;11.762;2023-07-31T05:42:35;4.72;;;2.20;;
12480;SDS011;6305;48.398;11.762;2023-07-31T05:45:04;3.92;;;2.20;;
12480;SDS011;6305;48.398;11.762;2023-07-31T05:47:32;5.15;;;2.00;;
12480;SDS011;6305;48.398;11.762;2023-07-31T05:49:59;7.45;;;2.63;;
12480;SDS011;6305;48.398;11.762;2023-07-31T05:52:26;3.38;;;2.38;;
12480;SDS011;6305;48.398;11.762;2023-07-31T05:54:54;3.03;;;2.08;;
12480;SDS011;6305;48.398;11.762;2023-07-31T05:57:22;4.78;;;2.17;;
12480;SDS011;6305;48.398;11.762;2023-07-31T05:59:50;4.38;;;2.40;;
12480;SDS011;6305;48.398;11.762;2023-07-31T06:02:18;2.97;;;2.13;;
12480;SDS011;6305;48.398;11.762;2023-07-31T06:04:45;3.72;;;2.00;;
12480;SDS011;6305;48.398;11.762;2023-07-31T06:07:12;4.53;;;1.95;;
12480;SDS011;6305;48.398;11.762;2023-07-31T06:09:39;4.20;;;1.88;;
12480;SDS011;6305;48.398;11.762;2023-07-31T06:12:06;3.03;;;2.25;;
12480;SDS011;6305;48.398;11.762;2023-07-31T06:14:34;3.10;;;1.90;;
12480;SDS011;6305;48.398;11.762;2023-07-31T06:17:02;2.28;;;1.95;;
12480;SDS011;6305;48.398;11.762;2023-07-31T06:19:29;3.05;;;1.85;;
12480;SDS011;6305;48.398;11.762;2023-07-31T06:21:56;4.72;;;2.15;;
12480;SDS011;6305;48.398;11.762;2023-07-31T06:24:23;4.80;;;1.85;;
12480;SDS011;6305;48.398;11.762;2023-07-31T06:26:50;3.40;;;1.92;;
12480;SDS011;6305;48.398;11.762;2023-07-31T06:29:17;4.18;;;2.25;;
12480;SDS011;6305;48.398;11.762;2023-07-31T06:31:44;2.65;;;1.77;;
12480;SDS011;6305;48.398;11.762;2023-07-31T06:34:12;4.22;;;2.08;;
12480;SDS011;6305;48.398;11.762;2023-07-31T06:36:39;3.75;;;2.00;;
12480;SDS011;6305;48.398;11.762;2023-07-31T06:39:06;4.07;;;2.10;;
12480;SDS011;6305;48.398;11.762;2023-07-31T06:41:34;3.22;;;1.77;;
12480;SDS011;6305;48.398;11.762;2023-07-31T06:44:05;3.40;;;1.80;;
12480;SDS011;6305;48.398;11.762;2023-07-31T06:46:32;2.35;;;1.77;;
12480;SDS011;6305;48.398;11.762;2023-07-31T06:48:59;2.30;;;1.80;;
12480;SDS011;6305;48.398;11.762;2023-07-31T06:51:28;2.00;;;1.75;;
12480;SDS011;6305;48.398;11.762;2023-07-31T06:53:57;3.17;;;2.08;;
12480;SDS011;6305;48.398;11.762;2023-07-31T06:56:24;3.78;;;1.75;;
12480;SDS011;6305;48.398;11.762;2023-07-31T06:58:52;2.83;;;1.83;;
12480;SDS011;6305;48.398;11.762;2023-07-31T07:01:19;2.88;;;1.88;;
12480;SDS011;6305;48.398;11.762;2023-07-31T07:03:46;3.97;;;2.08;;
12480;SDS011;6305;48.398;11.762;2023-07-31T07:06:16;4.30;;;2.00;;
12480;SDS011;6305;48.398;11.762;2023-07-31T07:08:44;3.63;;;1.92;;
12480;SDS011;6305;48.398;11.762;2023-07-31T07:11:11;3.13;;;2.00;;
12480;SDS011;6305;48.398;11.762;2023-07-31T07:13:38;3.65;;;2.00;;
12480;SDS011;6305;48.398;11.762;2023-07-31T07:16:06;2.90;;;1.90;;
12480;SDS011;6305;48.398;11.762;2023-07-31T07:18:33;3.20;;;2.08;;
12480;SDS011;6305;48.398;11.762;2023-07-31T07:21:00;3.22;;;1.90;;
12480;SDS011;6305;48.398;11.762;2023-07-31T07:23:27;3.22;;;1.90;;
12480;SDS011;6305;48.398;11.762;2023-07-31T07:25:56;3.17;;;2.08;;
12480;SDS011;6305;48.398;11.762;2023-07-31T07:28:23;3.42;;;1.92;;
12480;SDS011;6305;48.398;11.762;2023-07-31T07:30:50;2.55;;;1.63;;
12480;SDS011;6305;48.398;11.762;2023-07-31T07:33:19;2.33;;;1.77;;
12480;SDS011;6305;48.398;11.762;2023-07-31T07:35:46;4.55;;;1.80;;
12480;SDS011;6305;48.398;11.762;2023-07-31T07:38:13;3.42;;;1.92;;
12480;SDS011;6305;48.398;11.762;2023-07-31T07:40:41;4.30;;;2.20;;
12480;SDS011;6305;48.398;11.762;2023-07-31T07:43:09;2.33;;;1.67;;
12480;SDS011;6305;48.398;11.762;2023-07-31T07:45:39;3.13;;;1.92;;
12480;SDS011;6305;48.398;11.762;2023-07-31T07:48:06;3.80;;;1.65;;
12480;SDS011;6305;48.398;11.762;2023-07-31T07:50:33;2.22;;;1.92;;
12480;SDS011;6305;48.398;11.762;2023-07-31T07:52:59;2.90;;;1.77;;
12480;SDS011;6305;48.398;11.762;2023-07-31T07:55:27;2.70;;;1.90;;
12480;SDS011;6305;48.398;11.762;2023-07-31T07:57:53;2.75;;;1.77;;
12480;SDS011;6305;48.398;11.762;2023-07-31T08:00:22;3.30;;;1.70;;
12480;SDS011;6305;48.398;11.762;2023-07-31T08:02:49;1.90;;;1.67;;
12480;SDS011;6305;48.398;11.762;2023-07-31T08:05:16;7.22;;;1.92;;
12480;SDS011;6305;48.398;11.762;2023-07-31T08:07:43;2.05;;;1.58;;
12480;SDS011;6305;48.398;11.762;2023-07-31T08:10:10;2.45;;;1.45;;
12480;SDS011;6305;48.398;11.762;2023-07-31T08:12:37;2.92;;;1.70;;
12480;SDS011;6305;48.398;11.762;2023-07-31T08:15:05;2.22;;;1.42;;
12480;SDS011;6305;48.398;11.762;2023-07-31T08:17:34;5.15;;;1.45;;
12480;SDS011;6305;48.398;11.762;2023-07-31T08:20:01;1.88;;;1.20;;
12480;SDS011;6305;48.398;11.762;2023-07-31T08:22:29;2.58;;;1.40;;
12480;SDS011;6305;48.398;11.762;2023-07-31T08:24:55;2.50;;;1.20;;
12480;SDS011;6305;48.398;11.762;2023-07-31T08:27:22;3.38;;;1.63;;
12480;SDS011;6305;48.398;11.762;2023-07-31T08:29:49;2.65;;;1.58;;
12480;SDS011;6305;48.398;11.762;2023-07-31T08:32:18;3.58;;;1.40;;
12480;SDS011;6305;48.398;11.762;2023-07-31T08:34:47;2.42;;;1.65;;
12480;SDS011;6305;48.398;11.762;2023-07-31T08:37:14;2.83;;;1.70;;
12480;SDS011;6305;48.398;11.762;2023-07-31T08:39:41;2.70;;;1.60;;
12480;SDS011;6305;48.398;11.762;2023-07-31T08:42:08;2.38;;;1.48;;
12480;SDS011;6305;48.398;11.762;2023-07-31T08:44:35;4.13;;;1.42;;
12480;SDS011;6305;48.398;11.762;2023-07-31T08:47:03;2.70;;;1.45;;
12480;SDS011;6305;48.398;11.762;2023-07-31T08:49:31;1.92;;;1.40;;
12480;SDS011;6305;48.398;11.762;2023-07-31T08:52:01;3.20;;;1.70;;
12480;SDS011;6305;48.398;11.762;2023-07-31T08:54:29;2.63;;;1.42;;
12480;SDS011;6305;48.398;11.762;2023-07-31T08:56:56;2.20;;;1.35;;
12480;SDS011;6305;48.398;11.762;2023-07-31T08:59:25;3.55;;;1.38;;
12480;SDS011;6305;48.398;11.762;2023-07-31T09:01:54;3.38;;;1.35;;
12480;SDS011;6305;48.398;11.762;2023-07-31T09:04:24;3.00;;;1.40;;
12480;SDS011;6305;48.398;11.762;2023-07-31T09:06:53;2.78;;;1.50;;
12480;SDS011;6305;48.398;11.762;2023-07-31T09:09:27;4.15;;;2.10;;
12480;SDS011;6305;48.398;11.762;2023-07-31T09:11:54;4.63;;;1.98;;
12480;SDS011;6305;48.398;11.762;2023-07-31T09:14:22;3.22;;;1.60;;
12480;SDS011;6305;48.398;11.762;2023-07-31T09:16:51;3.25;;;1.73;;
12480;SDS011;6305;48.398;11.762;2023-07-31T09:19:24;2.30;;;1.67;;
12480;SDS011;6305;48.398;11.762;2023-07-31T09:21:52;2.13;;;1.55;;
12480;SDS011;6305;48.398;11.762;2023-07-31T09:24:24;2.67;;;1.50;;
12480;SDS011;6305;48.398;11.762;2023-07-31T09:26:53;3.65;;;1.25;;
12480;SDS011;6305;48.398;11.762;2023-07-31T09:29:21;3.35;;;1.48;;
12480;SDS011;6305;48.398;11.762;2023-07-31T09:31:50;4.22;;;1.60;;
12480;SDS011;6305;48.398;11.762;2023-07-31T09:34:17;4.40;;;1.60;;
12480;SDS011;6305;48.398;11.762;2023-07-31T09:36:44;2.60;;;1.50;;
12480;SDS011;6305;48.398;11.762;2023-07-31T09:39:14;3.40;;;1.50;;
12480;SDS011;6305;48.398;11.762;2023-07-31T09:41:44;1.88;;;1.30;;
12480;SDS011;6305;48.398;11.762;2023-07-31T09:44:13;3.42;;;1.52;;
12480;SDS011;6305;48.398;11.762;2023-07-31T09:46:40;1.75;;;1.20;;
12480;SDS011;6305;48.398;11.762;2023-07-31T09:49:08;4.35;;;1.60;;
12480;SDS011;6305;48.398;11.762;2023-07-31T09:51:36;2.63;;;1.38;;
12480;SDS011;6305;48.398;11.762;2023-07-31T09:54:09;2.08;;;1.20;;
12480;SDS011;6305;48.398;11.762;2023-07-31T09:56:38;2.72;;;1.67;;
12480;SDS011;6305;48.398;11.762;2023-07-31T09:59:12;2.47;;;1.40;;
12480;SDS011;6305;48.398;11.762;2023-07-31T10:01:41;2.42;;;1.50;;
12480;SDS011;6305;48.398;11.762;2023-07-31T10:04:09;2.13;;;1.40;;
12480;SDS011;6305;48.398;11.762;2023-07-31T10:06:37;3.78;;;1.60;;
12480;SDS011;6305;48.398;11.762;2023-07-31T10:09:07;4.32;;;1.80;;
12480;SDS011;6305;48.398;11.762;2023-07-31T10:11:37;2.45;;;1.20;;
12480;SDS011;6305;48.398;11.762;2023-07-31T10:14:09;4.03;;;1.63;;
12480;SDS011;6305;48.398;11.762;2023-07-31T10:16:38;2.33;;;1.58;;
12480;SDS011;6305;48.398;11.762;2023-07-31T10:19:06;3.03;;;1.80;;
12480;SDS011;6305;48.398;11.762;2023-07-31T10:21:34;1.98;;;1.40;;
12480;SDS011;6305;48.398;11.762;2023-07-31T10:24:04;2.90;;;1.25;;
12480;SDS011;6305;48.398;11.762;2023-07-31T10:26:31;2.47;;;1.35;;
12480;SDS011;6305;48.398;11.762;2023-07-31T10:28:59;2.85;;;1.33;;
12480;SDS011;6305;48.398;11.762;2023-07-31T10:31:28;2.60;;;1.45;;
12480;SDS011;6305;48.398;11.762;2023-07-31T10:33:55;2.30;;;1.50;;
12480;SDS011;6305;48.398;11.762;2023-07-31T10:36:26;2.60;;;1.60;;
12480;SDS011;6305;48.398;11.762;2023-07-31T10:38:54;2.67;;;1.30;;
12480;SDS011;6305;48.398;11.762;2023-07-31T10:41:27;3.38;;;1.67;;
12480;SDS011;6305;48.398;11.762;2023-07-31T10:43:57;2.28;;;1.35;;
12480;SDS011;6305;48.398;11.762;2023-07-31T10:46:25;1.90;;;1.30;;
12480;SDS011;6305;48.398;11.762;2023-07-31T10:48:58;2.17;;;1.45;;
12480;SDS011;6305;48.398;11.762;2023-07-31T10:51:32;3.55;;;1.60;;
12480;SDS011;6305;48.398;11.762;2023-07-31T10:54:10;6.25;;;1.98;;
12480;SDS011;6305;48.398;11.762;2023-07-31T10:56:37;3.28;;;1.60;;
12480;SDS011;6305;48.398;11.762;2023-07-31T10:59:05;2.00;;;1.60;;
12480;SDS011;6305;48.398;11.762;2023-07-31T11:01:51;4.45;;;1.90;;
12480;SDS011;6305;48.398;11.762;2023-07-31T11:04:23;4.18;;;1.75;;
12480;SDS011;6305;48.398;11.762;2023-07-31T11:06:57;1.50;;;1.40;;
12480;SDS011;6305;48.398;11.762;2023-07-31T11:09:27;3.25;;;1.50;;
12480;SDS011;6305;48.398;11.762;2023-07-31T11:11:56;3.00;;;1.40;;
12480;SDS011;6305;48.398;11.762;2023-07-31T11:14:23;2.03;;;1.50;;
12480;SDS011;6305;48.398;11.762;2023-07-31T11:16:50;3.22;;;1.58;;
12480;SDS011;6305;48.398;11.762;2023-07-31T11:19:22;5.00;;;1.65;;
12480;SDS011;6305;48.398;11.762;2023-07-31T11:21:50;3.30;;;1.50;;
12480;SDS011;6305;48.398;11.762;2023-07-31T11:24:19;2.58;;;1.60;;
12480;SDS011;6305;48.398;11.762;2023-07-31T11:26:50;2.97;;;1.63;;
12480;SDS011;6305;48.398;11.762;2023-07-31T11:29:17;5.53;;;2.20;;
12480;SDS011;6305;48.398;11.762;2023-07-31T11:31:45;2.97;;;1.88;;
12480;SDS011;6305;48.398;11.762;2023-07-31T11:34:14;3.13;;;1.77;;
12480;SDS011;6305;48.398;11.762;2023-07-31T11:36:53;4.03;;;1.70;;
12480;SDS011;6305;48.398;11.762;2023-07-31T11:39:21;3.35;;;1.60;;
12480;SDS011;6305;48.398;11.762;2023-07-31T11:41:48;2.78;;;1.65;;
12480;SDS011;6305;48.398;11.762;2023-07-31T11:44:15;3.95;;;1.60;;
12480;SDS011;6305;48.398;11.762;2023-07-31T11:46:42;4.32;;;1.88;;
12480;SDS011;6305;48.398;11.762;2023-07-31T11:49:09;4.25;;;1.58;;
12480;SDS011;6305;48.398;11.762;2023-07-31T11:51:36;2.00;;;1.50;;
12480;SDS011;6305;48.398;11.762;2023-07-31T11:54:05;2.35;;;1.45;;
12480;SDS011;6305;48.398;11.762;2023-07-31T11:56:32;3.30;;;1.60;;
12480;SDS011;6305;48.398;11.762;2023-07-31T11:58:59;2.70;;;1.65;;
12480;SDS011;6305;48.398;11.762;2023-07-31T12:01:28;5.30;;;1.65;;
12480;SDS011;6305;48.398;11.762;2023-07-31T12:03:55;2.25;;;1.75;;
12480;SDS011;6305;48.398;11.762;2023-07-31T12:06:31;2.67;;;1.80;;
12480;SDS011;6305;48.398;11.762;2023-07-31T12:09:00;3.63;;;1.63;;
12480;SDS011;6305;48.398;11.762;2023-07-31T12:11:30;3.35;;;1.70;;
12480;SDS011;6305;48.398;11.762;2023-07-31T12:13:58;2.95;;;1.60;;
12480;SDS011;6305;48.398;11.762;2023-07-31T12:16:26;2.10;;;1.60;;
12480;SDS011;6305;48.398;11.762;2023-07-31T12:18:53;2.25;;;1.50;;
12480;SDS011;6305;48.398;11.762;2023-07-31T12:21:20;2.22;;;1.40;;
12480;SDS011;6305;48.398;11.762;2023-07-31T12:23:47;3.65;;;1.75;;
12480;SDS011;6305;48.398;11.762;2023-07-31T12:26:15;3.22;;;1.55;;
12480;SDS011;6305;48.398;11.762;2023-07-31T12:28:44;2.25;;;1.40;;
12480;SDS011;6305;48.398;11.762;2023-07-31T12:31:13;2.75;;;1.77;;
12480;SDS011;6305;48.398;11.762;2023-07-31T12:33:42;3.10;;;1.67;;
12480;SDS011;6305;48.398;11.762;2023-07-31T12:36:10;2.72;;;1.58;;
12480;SDS011;6305;48.398;11.762;2023-07-31T12:38:38;2.47;;;1.90;;
12480;SDS011;6305;48.398;11.762;2023-07-31T12:41:05;2.60;;;1.80;;
12480;SDS011;6305;48.398;11.762;2023-07-31T12:43:32;3.47;;;1.70;;
12480;SDS011;6305;48.398;11.762;2023-07-31T12:46:01;1.73;;;1.60;;
12480;SDS011;6305;48.398;11.762;2023-07-31T12:48:28;2.10;;;1.50;;
12480;SDS011;6305;48.398;11.762;2023-07-31T12:50:55;2.95;;;1.52;;
12480;SDS011;6305;48.398;11.762;2023-07-31T12:53:22;4.05;;;1.52;;
12480;SDS011;6305;48.398;11.762;2023-07-31T12:55:49;2.20;;;1.30;;
12480;SDS011;6305;48.398;11.762;2023-07-31T12:58:17;2.42;;;1.45;;
12480;SDS011;6305;48.398;11.762;2023-07-31T13:00:46;3.53;;;1.60;;
12480;SDS011;6305;48.398;11.762;2023-07-31T13:03:14;2.97;;;1.33;;
12480;SDS011;6305;48.398;11.762;2023-07-31T13:05:41;3.38;;;1.73;;
12480;SDS011;6305;48.398;11.762;2023-07-31T13:08:08;3.10;;;1.27;;
12480;SDS011;6305;48.398;11.762;2023-07-31T13:10:35;3.58;;;1.70;;
12480;SDS011;6305;48.398;11.762;2023-07-31T13:13:03;2.13;;;1.50;;
12480;SDS011;6305;48.398;11.762;2023-07-31T13:15:29;2.97;;;1.60;;
12480;SDS011;6305;48.398;11.762;2023-07-31T13:17:56;2.35;;;1.40;;
12480;SDS011;6305;48.398;11.762;2023-07-31T13:20:26;2.55;;;1.77;;
12480;SDS011;6305;48.398;11.762;2023-07-31T13:22:53;6.03;;;1.90;;
12480;SDS011;6305;48.398;11.762;2023-07-31T13:25:20;2.75;;;1.60;;
12480;SDS011;6305;48.398;11.762;2023-07-31T13:27:47;2.05;;;1.40;;
12480;SDS011;6305;48.398;11.762;2023-07-31T13:30:14;4.35;;;1.38;;
12480;SDS011;6305;48.398;11.762;2023-07-31T13:32:41;2.40;;;1.58;;
12480;SDS011;6305;48.398;11.762;2023-07-31T13:35:08;4.45;;;1.80;;
12480;SDS011;6305;48.398;11.762;2023-07-31T13:37:38;3.90;;;1.52;;
12480;SDS011;6305;48.398;11.762;2023-07-31T13:40:05;2.08;;;1.70;;
12480;SDS011;6305;48.398;11.762;2023-07-31T13:42:33;4.65;;;2.47;;
12480;SDS011;6305;48.398;11.762;2023-07-31T13:45:00;2.63;;;1.60;;
12480;SDS011;6305;48.398;11.762;2023-07-31T13:47:27;1.95;;;1.50;;
12480;SDS011;6305;48.398;11.762;2023-07-31T13:49:54;2.30;;;1.50;;
12480;SDS011;6305;48.398;11.762;2023-07-31T13:52:21;1.90;;;1.38;;
12480;SDS011;6305;48.398;11.762;2023-07-31T13:54:49;2.22;;;1.60;;
12480;SDS011;6305;48.398;11.762;2023-07-31T13:57:16;5.10;;;1.70;;
12480;SDS011;6305;48.398;11.762;2023-07-31T13:59:43;1.95;;;1.50;;
12480;SDS011;6305;48.398;11.762;2023-07-31T14:02:10;2.55;;;1.67;;
12480;SDS011;6305;48.398;11.762;2023-07-31T14:04:37;1.80;;;1.50;;
12480;SDS011;6305;48.398;11.762;2023-07-31T14:07:04;3.83;;;1.58;;
12480;SDS011;6305;48.398;11.762;2023-07-31T14:09:31;2.83;;;1.90;;
12480;SDS011;6305;48.398;11.762;2023-07-31T14:11:59;3.53;;;1.80;;
12480;SDS011;6305;48.398;11.762;2023-07-31T14:14:27;2.22;;;1.63;;
12480;SDS011;6305;48.398;11.762;2023-07-31T14:16:53;2.88;;;1.70;;
12480;SDS011;6305;48.398;11.762;2023-07-31T14:19:20;4.63;;;1.77;;
12480;SDS011;6305;48.398;11.762;2023-07-31T14:21:47;2.50;;;1.80;;
12480;SDS011;6305;48.398;11.762;2023-07-31T14:24:13;2.88;;;1.65;;
12480;SDS011;6305;48.398;11.762;2023-07-31T14:26:40;2.80;;;1.98;;
12480;SDS011;6305;48.398;11.762;2023-07-31T14:29:09;3.80;;;1.85;;
12480;SDS011;6305;48.398;11.762;2023-07-31T14:31:36;3.28;;;1.70;;
12480;SDS011;6305;48.398;11.762;2023-07-31T14:34:03;3.65;;;1.77;;
12480;SDS011;6305;48.398;11.762;2023-07-31T14:36:30;3.08;;;1.80;;
12480;SDS011;6305;48.398;11.762;2023-07-31T14:38:57;3.33;;;1.92;;
12480;SDS011;6305;48.398;11.762;2023-07-31T14:41:24;4.20;;;1.92;;
12480;SDS011;6305;48.398;11.762;2023-07-31T14:43:51;3.97;;;2.17;;
12480;SDS011;6305;48.398;11.762;2023-07-31T14:46:19;7.85;;;2.47;;
12480;SDS011;6305;48.398;11.762;2023-07-31T14:48:46;1.85;;;1.67;;
12480;SDS011;6305;48.398;11.762;2023-07-31T14:51:13;3.45;;;1.80;;